createdAt,value
2023-05-09T00:02:50.238Z,9.56
2023-05-09T00:05:52.328Z,9.70
2023-05-09T00:08:55.112Z,9.71
2023-05-09T00:11:57.324Z,9.53
2023-05-09T00:14:59.484Z,9.62
2023-05-09T00:18:01.478Z,9.49
2023-05-09T00:21:04.415Z,9.52
2023-05-09T00:24:09.263Z,9.55
2023-05-09T00:27:11.415Z,9.48
2023-05-09T00:30:13.504Z,9.38
2023-05-09T00:33:15.719Z,9.41
2023-05-09T00:36:22.131Z,9.53
2023-05-09T00:39:24.233Z,9.53
2023-05-09T00:42:26.564Z,9.23
2023-05-09T00:45:28.682Z,9.41
2023-05-09T00:48:31.012Z,9.49
2023-05-09T00:51:33.494Z,9.45
2023-05-09T00:54:36.069Z,9.34
2023-05-09T00:57:37.977Z,9.02
2023-05-09T01:00:41.084Z,9.24
2023-05-09T01:03:43.697Z,9.21
2023-05-09T01:07:11.936Z,9.16
2023-05-09T01:10:32.102Z,9.11
2023-05-09T01:13:52.513Z,8.96
2023-05-09T01:17:02.932Z,9.15
2023-05-09T01:20:47.088Z,9.04
2023-05-09T01:24:23.050Z,9.02
2023-05-09T01:28:22.485Z,8.88
2023-05-09T01:31:25.892Z,9.07
2023-05-09T01:34:30.815Z,8.90
2023-05-09T01:37:35.664Z,8.93
2023-05-09T01:40:40.788Z,8.86
2023-05-09T01:43:45.877Z,8.97
2023-05-09T01:46:49.180Z,9.05
2023-05-09T01:49:53.070Z,9.00
2023-05-09T01:52:58.726Z,8.95
2023-05-09T01:56:02.179Z,8.91
2023-05-09T01:59:06.921Z,9.02
2023-05-09T02:02:09.925Z,8.94
2023-05-09T02:05:13.461Z,8.84
2023-05-09T02:08:16.954Z,8.91
2023-05-09T02:11:19.043Z,8.86
2023-05-09T02:14:21.347Z,8.87
2023-05-09T02:17:24.214Z,8.88
2023-05-09T02:20:26.256Z,8.71
2023-05-09T02:23:28.562Z,8.78
2023-05-09T02:26:31.265Z,8.74
2023-05-09T02:29:40.556Z,8.75
2023-05-09T02:32:45.925Z,8.78
2023-05-09T02:35:48.986Z,8.62
2023-05-09T02:38:51.650Z,8.65
2023-05-09T02:41:53.683Z,8.62
2023-05-09T02:44:56.263Z,8.59
2023-05-09T02:47:58.372Z,8.59
2023-05-09T02:51:00.399Z,8.64
2023-05-09T02:54:02.460Z,8.57
2023-05-09T02:57:04.698Z,8.51
2023-05-09T03:00:10.031Z,8.57
2023-05-09T03:03:12.139Z,8.47
2023-05-09T03:06:14.513Z,8.53
2023-05-09T03:09:16.765Z,8.59
2023-05-09T03:12:18.740Z,8.58
2023-05-09T03:15:21.424Z,8.49
2023-05-09T03:18:23.512Z,8.52
2023-05-09T03:21:25.918Z,8.51
2023-05-09T03:24:31.012Z,8.63
2023-05-09T03:27:32.992Z,8.57
2023-05-09T03:30:35.277Z,8.57
2023-05-09T03:33:37.244Z,8.56
2023-05-09T03:36:39.384Z,8.51
2023-05-09T03:39:41.259Z,8.55
2023-05-09T03:42:43.248Z,8.47
2023-05-09T03:45:45.654Z,8.48
2023-05-09T03:48:47.600Z,8.49
2023-05-09T03:51:49.650Z,8.57
2023-05-09T03:54:51.950Z,8.59
2023-05-09T03:57:54.415Z,8.54
2023-05-09T04:00:56.507Z,8.52
2023-05-09T04:03:58.690Z,8.55
2023-05-09T04:07:00.913Z,8.45
2023-05-09T04:10:02.816Z,8.59
2023-05-09T04:13:05.171Z,8.50
2023-05-09T04:16:07.754Z,8.58
2023-05-09T04:19:09.945Z,8.60
2023-05-09T04:22:11.883Z,8.43
2023-05-09T04:25:16.121Z,8.50
2023-05-09T04:28:18.483Z,8.64
2023-05-09T04:31:20.644Z,8.68
2023-05-09T04:34:22.828Z,8.48
2023-05-09T04:37:24.871Z,8.67
2023-05-09T04:40:27.163Z,8.60
2023-05-09T04:43:29.951Z,8.63
2023-05-09T04:46:32.138Z,8.78
2023-05-09T04:49:34.030Z,8.76
2023-05-09T04:52:36.120Z,8.77
2023-05-09T04:55:38.082Z,8.87
2023-05-09T04:58:40.793Z,8.95
2023-05-09T05:01:43.995Z,8.98
2023-05-09T05:04:46.074Z,8.90
2023-05-09T05:07:48.438Z,8.95
2023-05-09T05:10:51.335Z,9.15
2023-05-09T05:13:53.361Z,9.09
2023-05-09T05:17:01.718Z,9.11
2023-05-09T05:20:06.704Z,9.27
2023-05-09T05:23:09.816Z,9.31
2023-05-09T05:26:15.081Z,9.36
2023-05-09T05:29:17.968Z,9.19
2023-05-09T05:32:20.075Z,9.28
2023-05-09T05:35:23.524Z,9.47
2023-05-09T05:38:25.721Z,9.48
2023-05-09T05:41:28.061Z,9.63
2023-05-09T05:44:30.086Z,9.73
2023-05-09T05:47:36.814Z,9.65
2023-05-09T05:50:39.564Z,9.68
2023-05-09T05:53:53.243Z,9.57
2023-05-09T05:56:57.518Z,9.89
2023-05-09T05:59:59.952Z,10.05
2023-05-09T06:03:06.283Z,10.14
2023-05-09T06:07:33.727Z,10.23
2023-05-09T06:11:06.448Z,10.44
2023-05-09T06:14:17.911Z,10.54
2023-05-09T06:17:20.754Z,10.59
2023-05-09T06:20:23.507Z,11.98
2023-05-09T06:23:51.031Z,13.83
2023-05-09T06:27:18.394Z,14.66
2023-05-09T06:31:27.601Z,15.64
2023-05-09T06:34:36.959Z,15.35
2023-05-09T06:38:41.061Z,14.89
2023-05-09T06:41:52.091Z,13.09
2023-05-09T06:44:54.694Z,12.79
2023-05-09T06:48:08.751Z,12.68
2023-05-09T06:51:14.926Z,12.89
2023-05-09T06:54:36.263Z,12.92
2023-05-09T06:57:41.988Z,13.05
2023-05-09T07:00:44.798Z,12.95
2023-05-09T07:04:01.017Z,13.02
2023-05-09T07:10:43.275Z,13.49
2023-05-09T07:13:46.745Z,15.44
2023-05-09T07:16:49.882Z,17.34
2023-05-09T07:19:52.168Z,17.86
2023-05-09T07:22:54.478Z,17.31
2023-05-09T07:26:52.456Z,17.26
2023-05-09T07:29:58.149Z,17.04
2023-05-09T07:33:02.643Z,17.13
2023-05-09T07:36:05.330Z,17.52
2023-05-09T07:39:11.086Z,18.30
2023-05-09T07:42:24.173Z,18.65
2023-05-09T07:45:27.033Z,19.41
2023-05-09T07:48:32.307Z,17.69
2023-05-09T07:51:38.326Z,18.64
2023-05-09T07:54:41.564Z,16.28
2023-05-09T07:57:46.725Z,15.12
2023-05-09T08:00:50.198Z,14.86
2023-05-09T08:04:22.148Z,14.96
2023-05-09T08:07:35.327Z,14.47
2023-05-09T08:10:53.036Z,14.47
2023-05-09T08:14:45.882Z,14.45
2023-05-09T08:18:34.480Z,14.84
2023-05-09T08:21:43.178Z,14.26
2023-05-09T08:24:49.662Z,14.79
2023-05-09T08:27:56.852Z,14.81
2023-05-09T08:31:15.156Z,14.94
2023-05-09T08:39:02.149Z,14.70
2023-05-09T08:42:35.764Z,14.70
2023-05-09T08:46:38.104Z,15.08
2023-05-09T08:54:02.134Z,15.50
2023-05-09T08:57:16.581Z,15.60
2023-05-09T09:00:33.626Z,15.54
2023-05-09T09:07:54.158Z,15.62
2023-05-09T09:11:20.341Z,15.63
2023-05-09T09:14:32.481Z,15.91
2023-05-09T09:17:41.804Z,15.90
2023-05-09T09:21:00.365Z,15.66
2023-05-09T09:24:05.056Z,15.68
2023-05-09T09:27:07.835Z,15.91
2023-05-09T09:33:32.303Z,15.82
2023-05-09T09:36:38.064Z,15.85
2023-05-09T09:39:55.204Z,16.09
2023-05-09T09:43:00.689Z,15.82
2023-05-09T09:46:20.340Z,15.93
2023-05-09T09:49:30.150Z,15.70
2023-05-09T09:52:33.759Z,15.97
2023-05-09T10:08:55.689Z,17.00
2023-05-09T10:12:33.275Z,17.02
2023-05-09T10:16:13.041Z,16.69
2023-05-09T10:23:08.839Z,16.12
2023-05-09T10:26:34.909Z,16.53
2023-05-09T10:29:58.993Z,16.78
2023-05-09T10:33:10.030Z,16.91
2023-05-09T10:36:15.644Z,16.91
2023-05-09T10:39:21.204Z,17.35
2023-05-09T10:42:28.547Z,16.74
2023-05-09T10:45:30.802Z,16.81
2023-05-09T10:48:34.331Z,16.72
2023-05-09T10:51:39.588Z,16.99
2023-05-09T10:54:44.502Z,17.25
2023-05-09T10:58:18.469Z,17.18
2023-05-09T11:01:40.149Z,16.81
2023-05-09T11:05:05.550Z,16.79
2023-05-09T11:08:23.522Z,16.74
2023-05-09T11:11:36.290Z,17.12
2023-05-09T11:14:42.699Z,17.46
2023-05-09T11:18:06.484Z,17.37
2023-05-09T11:21:10.121Z,17.57
2023-05-09T11:24:19.536Z,17.42
2023-05-09T11:27:27.533Z,17.32
2023-05-09T11:30:44.066Z,17.72
2023-05-09T11:37:21.924Z,16.98
2023-05-09T11:40:40.626Z,16.97
2023-05-09T11:43:53.510Z,17.41
2023-05-09T11:47:35.155Z,17.09
2023-05-09T11:50:55.722Z,17.12
2023-05-09T11:57:35.819Z,17.56
2023-05-09T12:00:46.797Z,17.66
2023-05-09T12:03:59.630Z,17.19
2023-05-09T12:07:03.336Z,17.02
2023-05-09T12:10:14.511Z,16.80
2023-05-09T12:13:35.378Z,17.21
2023-05-09T12:17:08.710Z,17.20
2023-05-09T12:21:27.346Z,17.30
2023-05-09T12:24:44.813Z,17.54
2023-05-09T12:27:54.966Z,17.51
2023-05-09T12:31:13.631Z,17.57
2023-05-09T12:34:25.526Z,17.41
2023-05-09T12:37:30.585Z,17.25
2023-05-09T12:40:34.304Z,17.41
2023-05-09T12:43:43.299Z,17.51
2023-05-09T12:46:56.291Z,17.79
2023-05-09T12:50:04.792Z,17.97
2023-05-09T12:53:09.420Z,18.14
2023-05-09T12:56:31.067Z,18.12
2023-05-09T12:59:34.325Z,17.99
2023-05-09T13:02:44.958Z,18.13
2023-05-09T13:06:00.798Z,17.91
2023-05-09T13:09:06.537Z,17.96
2023-05-09T13:12:22.333Z,17.75
2023-05-09T13:15:27.066Z,17.70
2023-05-09T13:19:02.345Z,17.74
2023-05-09T13:22:29.638Z,17.84
2023-05-09T13:25:55.752Z,17.85
2023-05-09T13:29:15.986Z,17.51
2023-05-09T13:32:21.028Z,17.60
2023-05-09T13:35:43.517Z,17.49
2023-05-09T13:38:54.347Z,17.49
2023-05-09T13:42:02.668Z,17.54
2023-05-09T13:45:10.438Z,17.47
2023-05-09T13:48:14.279Z,17.50
2023-05-09T13:51:19.765Z,17.55
2023-05-09T13:54:27.333Z,17.30
2023-05-09T13:57:46.681Z,17.17
2023-05-09T14:01:14.994Z,17.26
2023-05-09T14:04:27.428Z,17.33
2023-05-09T14:07:35.933Z,17.30
2023-05-09T14:10:48.822Z,17.29
2023-05-09T14:13:55.586Z,17.25
2023-05-09T14:17:09.405Z,17.39
2023-05-09T14:20:21.361Z,17.46
2023-05-09T14:23:30.184Z,17.54
2023-05-09T14:26:55.149Z,17.67
2023-05-09T14:30:26.375Z,17.77
2023-05-09T14:33:52.989Z,17.64
2023-05-09T14:37:02.594Z,17.24
2023-05-09T14:40:29.429Z,17.45
2023-05-09T14:44:04.225Z,17.45
2023-05-09T14:47:21.219Z,17.40
2023-05-09T14:58:02.134Z,17.19
2023-05-09T15:01:14.882Z,17.30
2023-05-09T15:04:33.475Z,17.08
2023-05-09T15:07:46.264Z,17.23
2023-05-09T15:11:09.694Z,17.36
2023-05-09T15:15:41.592Z,17.54
2023-05-09T15:30:22.271Z,17.79
2023-05-09T15:33:38.549Z,17.59
2023-05-09T15:36:57.989Z,17.42
2023-05-09T15:40:07.110Z,17.50
2023-05-09T15:43:29.020Z,17.33
2023-05-09T15:46:38.067Z,17.20
2023-05-09T15:49:44.066Z,17.28
2023-05-09T15:52:57.475Z,17.03
2023-05-09T15:56:10.176Z,17.23
2023-05-09T15:59:19.692Z,17.23
2023-05-09T16:02:27.277Z,17.27
2023-05-09T16:06:03.421Z,17.35
2023-05-09T16:09:07.287Z,17.52
2023-05-09T16:12:28.184Z,17.56
2023-05-09T16:15:43.566Z,17.33
2023-05-09T16:18:55.812Z,17.32
2023-05-09T16:22:08.404Z,16.99
2023-05-09T16:25:20.638Z,17.12
2023-05-09T16:28:46.685Z,16.87
2023-05-09T16:32:03.892Z,17.04
2023-05-09T16:35:18.119Z,17.02
2023-05-09T16:38:27.016Z,16.86
2023-05-09T16:41:39.127Z,16.96
2023-05-09T16:45:03.251Z,16.95
2023-05-09T16:48:33.544Z,16.77
2023-05-09T16:52:08.796Z,16.87
2023-05-09T16:55:49.194Z,16.86
2023-05-09T16:59:31.757Z,16.88
2023-05-09T17:06:57.974Z,16.79
2023-05-09T17:10:25.795Z,16.81
2023-05-09T17:18:37.618Z,16.74
2023-05-09T17:34:05.262Z,16.47
2023-05-09T17:36:19.643Z,16.41
2023-05-09T17:40:59.928Z,16.34
2023-05-09T17:45:27.355Z,16.24
2023-05-09T17:49:24.357Z,16.21
2023-05-09T18:13:02.124Z,15.83
2023-05-09T18:16:11.469Z,15.55
2023-05-09T18:19:27.983Z,15.65
2023-05-09T18:23:02.606Z,15.64
2023-05-09T18:26:27.643Z,15.57
2023-05-09T18:29:41.068Z,15.48
2023-05-09T18:33:02.990Z,15.48
2023-05-09T18:36:12.190Z,15.49
2023-05-09T18:39:22.608Z,15.38
2023-05-09T18:42:27.749Z,15.15
2023-05-09T18:45:37.582Z,15.26
2023-05-09T18:48:45.290Z,15.23
2023-05-09T18:51:53.249Z,15.13
2023-05-09T18:55:28.360Z,14.86
2023-05-09T18:58:45.647Z,15.08
2023-05-09T19:01:49.129Z,14.90
2023-05-09T19:04:56.035Z,14.95
2023-05-09T19:08:00.208Z,14.95
2023-05-09T19:11:12.881Z,14.76
2023-05-09T19:14:25.375Z,14.85
2023-05-09T19:17:35.274Z,14.70
2023-05-09T19:20:45.357Z,14.77
2023-05-09T19:23:52.945Z,14.70
2023-05-09T19:27:04.806Z,14.59
2023-05-09T19:30:30.998Z,14.66
2023-05-09T19:33:42.962Z,14.45
2023-05-09T19:36:47.274Z,14.54
2023-05-09T19:39:54.142Z,14.53
2023-05-09T19:43:04.877Z,14.48
2023-05-09T19:46:11.163Z,14.40
2023-05-09T19:49:17.952Z,14.44
2023-05-09T19:52:25.782Z,14.37
2023-05-09T19:55:36.734Z,14.32
2023-05-09T19:58:50.248Z,14.24
2023-05-09T20:01:53.903Z,14.28
2023-05-09T20:04:57.511Z,14.16
2023-05-09T20:08:06.566Z,14.24
2023-05-09T20:11:19.839Z,14.20
2023-05-09T20:14:23.945Z,14.11
2023-05-09T20:17:27.522Z,14.07
2023-05-09T20:20:33.049Z,13.89
2023-05-09T20:23:41.952Z,14.06
2023-05-09T20:26:55.972Z,13.90
2023-05-09T20:30:08.058Z,13.90
2023-05-09T20:33:12.569Z,13.87
2023-05-09T20:36:18.810Z,13.82
2023-05-09T20:39:25.576Z,13.82
2023-05-09T20:42:34.171Z,13.80
2023-05-09T20:45:39.058Z,13.81
2023-05-09T20:48:48.503Z,13.78
2023-05-09T20:51:57.923Z,13.71
2023-05-09T20:55:07.767Z,13.73
2023-05-09T20:58:18.612Z,13.68
2023-05-09T21:01:44.300Z,13.64
2023-05-09T21:05:04.981Z,13.52
2023-05-09T21:08:13.931Z,13.50
2023-05-09T21:11:57.898Z,13.47
2023-05-09T21:15:33.894Z,13.21
2023-05-09T21:18:56.564Z,13.41
2023-05-09T21:22:52.140Z,13.38
2023-05-09T21:26:12.991Z,13.35
2023-05-09T21:33:51.882Z,13.43
2023-05-09T21:37:09.430Z,13.45
2023-05-09T21:40:52.827Z,13.42
2023-05-09T21:44:20.396Z,13.15
2023-05-09T21:47:26.701Z,13.39
2023-05-09T21:50:35.042Z,13.25
2023-05-09T21:53:43.971Z,13.41
2023-05-09T21:56:51.080Z,13.34
2023-05-09T22:00:21.481Z,13.38
2023-05-09T22:03:32.964Z,13.05
2023-05-09T22:06:40.576Z,12.97
2023-05-09T22:09:54.496Z,12.95
2023-05-09T22:13:03.080Z,13.04
2023-05-09T22:16:12.586Z,12.72
2023-05-09T22:19:30.528Z,13.04
2023-05-09T22:22:42.672Z,12.92
2023-05-09T22:25:51.426Z,12.75
2023-05-09T22:29:12.203Z,12.89
2023-05-09T22:32:38.325Z,13.10
2023-05-09T22:35:52.526Z,12.90
2023-05-09T22:39:26.041Z,12.87
2023-05-09T22:42:39.404Z,13.07
2023-05-09T22:46:06.241Z,13.05
2023-05-09T22:49:36.415Z,13.22
2023-05-09T22:52:46.639Z,13.22
2023-05-09T22:56:45.404Z,13.25
2023-05-09T23:00:00.242Z,13.42
2023-05-09T23:03:27.629Z,13.52
2023-05-09T23:07:00.107Z,13.61
2023-05-09T23:10:30.302Z,13.38
2023-05-09T23:13:47.805Z,13.64
2023-05-09T23:17:02.642Z,13.70
2023-05-09T23:20:09.820Z,13.61
2023-05-09T23:23:38.069Z,13.56
2023-05-09T23:27:12.354Z,13.48
2023-05-09T23:30:35.496Z,13.21
2023-05-09T23:34:02.826Z,13.29
2023-05-09T23:41:33.464Z,13.35
2023-05-09T23:45:23.908Z,13.26
2023-05-09T23:49:30.769Z,13.23
2023-05-09T23:53:00.620Z,13.11
2023-05-09T23:56:37.199Z,13.02
